createdAt,value
2019-04-28T00:01:32.193Z,38.87
2019-04-28T00:04:36.467Z,42.70
2019-04-28T00:07:41.155Z,39.97
2019-04-28T00:10:45.501Z,38.87
2019-04-28T00:13:51.849Z,44.70
2019-04-28T00:16:55.864Z,40.93
2019-04-28T00:20:01.738Z,41.47
2019-04-28T00:23:16.678Z,44.50
2019-04-28T00:26:44.514Z,40.30
2019-04-28T00:29:48.792Z,39.60
2019-04-28T00:32:53.103Z,47.37
2019-04-28T00:35:57.779Z,41.00
2019-04-28T00:39:02.206Z,41.10
2019-04-28T00:42:06.553Z,43.80
2019-04-28T00:45:11.582Z,39.83
2019-04-28T00:48:15.961Z,39.13
2019-04-28T00:51:21.329Z,44.60
2019-04-28T00:54:25.799Z,49.03
2019-04-28T00:57:30.965Z,39.63
2019-04-28T01:00:37.474Z,47.97
2019-04-28T01:03:48.726Z,44.63
2019-04-28T01:06:53.018Z,44.83
2019-04-28T01:09:57.453Z,47.40
2019-04-28T01:13:02.208Z,43.03
2019-04-28T01:16:16.308Z,45.37
2019-04-28T01:19:24.881Z,49.67
2019-04-28T01:22:30.051Z,49.33
2019-04-28T01:25:34.524Z,49.40
2019-04-28T01:28:39.832Z,49.73
2019-04-28T01:31:51.806Z,51.37
2019-04-28T01:34:56.427Z,49.57
2019-04-28T01:38:00.690Z,54.27
2019-04-28T01:41:05.199Z,53.80
2019-04-28T01:44:10.246Z,52.83
2019-04-28T01:47:14.642Z,61.30
2019-04-28T01:50:20.456Z,54.07
2019-04-28T01:53:25.091Z,56.43
2019-04-28T01:56:30.420Z,51.90
2019-04-28T01:59:34.848Z,54.00
2019-04-28T02:02:40.725Z,54.57
2019-04-28T02:05:45.126Z,58.60
2019-04-28T02:08:51.149Z,54.53
2019-04-28T02:11:55.408Z,59.37
2019-04-28T02:15:00.943Z,58.87
2019-04-28T02:18:05.636Z,58.67
2019-04-28T02:21:34.885Z,59.10
2019-04-28T02:24:40.491Z,59.67
2019-04-28T02:27:44.932Z,67.57
2019-04-28T02:30:53.386Z,64.37
2019-04-28T02:33:55.146Z,65.20
2019-04-28T02:37:01.414Z,69.13
2019-04-28T02:40:06.851Z,66.93
2019-04-28T02:43:11.611Z,68.20
2019-04-28T02:46:16.032Z,64.23
2019-04-28T02:49:30.727Z,70.60
2019-04-28T02:53:02.067Z,63.70
2019-04-28T02:56:06.593Z,64.53
2019-04-28T02:59:11.066Z,66.60
2019-04-28T03:02:15.582Z,67.10
2019-04-28T03:05:21.599Z,66.07
2019-04-28T03:08:26.200Z,67.60
2019-04-28T03:11:31.440Z,66.03
2019-04-28T03:14:35.960Z,71.13
2019-04-28T03:17:40.902Z,67.80
2019-04-28T03:20:45.415Z,64.53
2019-04-28T03:23:51.697Z,67.43
2019-04-28T03:27:03.583Z,70.90
2019-04-28T03:30:25.993Z,69.03
2019-04-28T03:33:34.510Z,67.67
2019-04-28T03:36:36.809Z,67.90
2019-04-28T03:39:41.122Z,64.13
2019-04-28T03:42:45.467Z,69.00
2019-04-28T03:45:54.442Z,70.90
2019-04-28T03:49:00.756Z,69.73
2019-04-28T03:52:05.989Z,69.50
2019-04-28T03:55:11.752Z,70.77
2019-04-28T03:58:16.306Z,69.23
2019-04-28T04:01:20.906Z,65.73
2019-04-28T04:04:25.333Z,72.63
2019-04-28T04:07:31.149Z,69.53
2019-04-28T04:10:43.147Z,67.53
2019-04-28T04:14:02.803Z,68.23
2019-04-28T04:17:16.739Z,68.20
2019-04-28T04:20:24.531Z,67.13
2019-04-28T04:23:30.940Z,70.63
2019-04-28T04:26:34.653Z,65.33
2019-04-28T04:29:41.184Z,63.70
2019-04-28T04:32:44.947Z,65.03
2019-04-28T04:35:51.596Z,64.63
2019-04-28T04:38:55.275Z,71.63
2019-04-28T04:42:00.634Z,71.20
2019-04-28T04:45:05.131Z,65.83
2019-04-28T04:48:11.620Z,69.73
2019-04-28T04:51:15.702Z,66.37
2019-04-28T04:54:20.511Z,68.60
2019-04-28T04:57:24.878Z,66.57
2019-04-28T05:00:36.998Z,66.33
2019-04-28T05:03:42.942Z,60.00
2019-04-28T05:06:47.315Z,64.27
2019-04-28T05:09:51.581Z,63.53
2019-04-28T05:12:55.946Z,62.80
2019-04-28T05:16:00.295Z,62.57
2019-04-28T05:19:05.515Z,61.07
2019-04-28T05:22:10.538Z,61.20
2019-04-28T05:25:20.510Z,62.83
2019-04-28T05:28:24.724Z,63.53
2019-04-28T05:31:29.731Z,62.70
2019-04-28T05:34:33.983Z,65.33
2019-04-28T05:37:40.300Z,61.57
2019-04-28T05:40:44.190Z,59.43
2019-04-28T05:43:50.413Z,59.00
2019-04-28T05:46:54.603Z,58.47
2019-04-28T05:50:05.377Z,59.27
2019-04-28T05:53:21.833Z,53.87
2019-04-28T05:56:40.827Z,55.23
2019-04-28T06:00:03.306Z,53.20
2019-04-28T06:03:09.597Z,54.47
2019-04-28T06:06:14.032Z,57.47
2019-04-28T06:09:35.383Z,52.03
2019-04-28T06:12:40.598Z,55.93
2019-04-28T06:15:45.151Z,51.50
2019-04-28T06:18:50.082Z,48.50
2019-04-28T06:21:55.238Z,48.63
2019-04-28T06:24:59.560Z,49.90
2019-04-28T06:28:03.807Z,50.77
2019-04-28T06:31:08.123Z,48.23
2019-04-28T06:34:12.405Z,46.67
2019-04-28T06:37:16.730Z,50.20
2019-04-28T06:40:21.053Z,47.93
2019-04-28T06:43:25.256Z,49.80
2019-04-28T06:46:29.714Z,52.33
2019-04-28T06:49:34.052Z,48.50
2019-04-28T06:52:38.518Z,46.27
2019-04-28T06:55:42.803Z,48.67
2019-04-28T06:58:58.478Z,50.03
2019-04-28T07:01:54.050Z,47.20
2019-04-28T07:05:02.249Z,49.33
2019-04-28T07:08:04.639Z,50.80
2019-04-28T07:11:09.038Z,45.07
2019-04-28T07:14:13.389Z,50.03
2019-04-28T07:17:17.767Z,46.60
2019-04-28T07:20:43.862Z,45.30
2019-04-28T07:23:48.760Z,45.27
2019-04-28T07:26:57.070Z,46.60
2019-04-28T07:30:01.453Z,44.63
2019-04-28T07:33:05.728Z,47.70
2019-04-28T07:36:10.034Z,50.93
2019-04-28T07:39:14.325Z,47.30
2019-04-28T07:42:18.596Z,46.83
2019-04-28T07:45:22.950Z,48.00
2019-04-28T07:48:27.359Z,43.33
2019-04-28T07:51:43.463Z,48.17
2019-04-28T07:54:47.862Z,42.93
2019-04-28T07:57:52.348Z,46.43
2019-04-28T08:00:56.719Z,45.67
2019-04-28T08:04:01.048Z,45.70
2019-04-28T08:07:05.368Z,42.90
2019-04-28T08:10:10.015Z,43.83
2019-04-28T08:13:14.354Z,41.13
2019-04-28T08:16:18.627Z,46.33
2019-04-28T08:19:23.023Z,43.07
2019-04-28T08:22:27.630Z,45.63
2019-04-28T08:25:32.044Z,40.77
2019-04-28T08:28:36.407Z,39.43
2019-04-28T08:32:02.644Z,37.47
2019-04-28T08:35:07.154Z,34.67
2019-04-28T08:38:11.444Z,35.97
2019-04-28T08:41:15.817Z,35.43
2019-04-28T08:44:20.130Z,32.77
2019-04-28T08:47:24.470Z,31.17
2019-04-28T08:50:28.832Z,33.70
2019-04-28T08:53:33.113Z,30.17
2019-04-28T08:56:37.492Z,28.63
2019-04-28T08:59:41.915Z,30.83
2019-04-28T09:02:46.287Z,31.37
2019-04-28T09:05:50.699Z,28.93
2019-04-28T09:08:54.997Z,28.53
2019-04-28T09:11:59.363Z,30.27
2019-04-28T09:15:04.218Z,31.07
2019-04-28T09:18:08.570Z,30.33
2019-04-28T09:21:12.935Z,28.20
2019-04-28T09:24:20.219Z,28.97
2019-04-28T09:27:24.601Z,28.47
2019-04-28T09:30:29.027Z,31.20
2019-04-28T09:33:33.459Z,31.30
2019-04-28T09:36:37.804Z,29.77
2019-04-28T09:39:49.695Z,29.93
2019-04-28T09:43:18.839Z,28.00
2019-04-28T09:46:26.376Z,32.60
2019-04-28T09:49:33.884Z,27.90
2019-04-28T09:52:38.244Z,27.20
2019-04-28T09:55:42.633Z,27.80
2019-04-28T09:58:46.969Z,25.97
2019-04-28T10:01:51.354Z,25.40
2019-04-28T10:04:55.675Z,26.13
2019-04-28T10:07:59.942Z,27.67
2019-04-28T10:11:04.391Z,26.90
2019-04-28T10:14:08.744Z,24.17
2019-04-28T10:17:13.743Z,23.83
2019-04-28T10:20:19.076Z,20.87
2019-04-28T10:23:23.406Z,20.97
2019-04-28T10:26:29.653Z,22.10
2019-04-28T10:29:34.060Z,19.57
2019-04-28T10:32:38.268Z,20.57
2019-04-28T10:35:42.707Z,20.70
2019-04-28T10:38:48.690Z,19.97
2019-04-28T10:41:53.508Z,20.83
2019-04-28T10:44:58.151Z,23.80
2019-04-28T10:48:02.974Z,22.40
2019-04-28T10:51:07.366Z,19.37
2019-04-28T10:54:11.820Z,20.37
2019-04-28T10:57:16.170Z,18.20
2019-04-28T11:00:24.329Z,17.37
2019-04-28T11:03:28.750Z,17.20
2019-04-28T11:06:33.395Z,17.87
2019-04-28T11:09:42.885Z,16.87
2019-04-28T11:12:47.650Z,19.57
2019-04-28T11:15:51.988Z,16.57
2019-04-28T11:18:56.357Z,14.47
2019-04-28T11:22:00.689Z,16.03
2019-04-28T11:25:05.593Z,15.50
2019-04-28T11:28:10.095Z,14.20
2019-04-28T11:31:14.557Z,13.10
2019-04-28T11:34:28.219Z,13.80
2019-04-28T11:37:32.615Z,12.20
2019-04-28T11:40:36.994Z,13.57
2019-04-28T11:43:41.376Z,13.93
2019-04-28T11:46:45.644Z,16.23
2019-04-28T11:49:49.975Z,15.50
2019-04-28T11:52:54.351Z,14.57
2019-04-28T11:55:58.781Z,11.93
2019-04-28T11:59:03.215Z,14.57
2019-04-28T12:02:08.197Z,11.97
2019-04-28T12:05:12.522Z,14.43
2019-04-28T12:08:16.905Z,11.83
2019-04-28T12:11:34.459Z,13.67
2019-04-28T12:14:44.516Z,12.53
2019-04-28T12:18:06.587Z,11.23
2019-04-28T12:21:10.982Z,11.50
2019-04-28T12:24:15.635Z,12.47
2019-04-28T12:27:19.941Z,13.43
2019-04-28T12:30:24.291Z,12.23
2019-04-28T12:33:28.682Z,12.07
2019-04-28T12:36:34.181Z,11.77
2019-04-28T12:39:38.570Z,10.60
2019-04-28T12:42:42.870Z,13.27
2019-04-28T12:45:47.194Z,13.43
2019-04-28T12:48:54.772Z,10.60
2019-04-28T12:51:59.086Z,12.43
2019-04-28T12:55:04.353Z,13.47
2019-04-28T12:58:08.720Z,14.40
2019-04-28T13:01:33.162Z,10.67
2019-04-28T13:04:41.171Z,10.30
2019-04-28T13:07:45.514Z,11.57
2019-04-28T13:10:49.883Z,10.60
2019-04-28T13:13:54.214Z,11.93
2019-04-28T13:16:58.533Z,10.97
2019-04-28T13:20:02.924Z,11.33
2019-04-28T13:23:08.255Z,15.30
2019-04-28T13:26:12.598Z,10.83
2019-04-28T13:29:16.991Z,9.43
2019-04-28T13:32:21.344Z,10.73
2019-04-28T13:35:25.849Z,9.23
2019-04-28T13:38:30.218Z,8.50
2019-04-28T13:41:37.492Z,9.00
2019-04-28T13:44:55.347Z,8.43
2019-04-28T13:47:59.946Z,8.27
2019-04-28T13:51:04.346Z,9.03
2019-04-28T13:54:10.696Z,10.37
2019-04-28T13:57:15.019Z,9.10
2019-04-28T14:00:21.562Z,8.83
2019-04-28T14:03:47.594Z,9.87
2019-04-28T14:06:55.032Z,9.43
2019-04-28T14:09:59.383Z,8.37
2019-04-28T14:13:03.802Z,8.67
2019-04-28T14:16:08.154Z,11.60
2019-04-28T14:19:12.573Z,10.33
2019-04-28T14:22:16.801Z,9.93
2019-04-28T14:25:21.100Z,11.70
2019-04-28T14:28:25.426Z,9.37
2019-04-28T14:31:29.763Z,9.43
2019-04-28T14:34:34.050Z,8.23
2019-04-28T14:37:44.804Z,9.00
2019-04-28T14:40:49.199Z,9.07
2019-04-28T14:43:53.625Z,10.73
2019-04-28T14:46:57.895Z,9.27
2019-04-28T14:50:02.913Z,12.67
2019-04-28T14:53:08.803Z,10.30
2019-04-28T14:56:13.423Z,7.77
2019-04-28T14:59:17.936Z,10.30
2019-04-28T15:02:29.228Z,7.57
2019-04-28T15:05:55.256Z,8.00
2019-04-28T15:09:09.292Z,8.60
2019-04-28T15:12:14.281Z,7.43
2019-04-28T15:15:20.197Z,10.33
2019-04-28T15:18:24.785Z,17.63
2019-04-28T15:21:29.294Z,10.17
2019-04-28T15:24:33.676Z,10.90
2019-04-28T15:27:38.217Z,9.60
2019-04-28T15:30:42.897Z,9.27
2019-04-28T15:33:48.328Z,8.90
2019-04-28T15:36:52.793Z,11.73
2019-04-28T15:39:57.171Z,9.33
2019-04-28T15:43:01.916Z,9.63
2019-04-28T15:46:06.293Z,11.67
2019-04-28T15:49:10.830Z,11.70
2019-04-28T15:52:19.797Z,10.93
2019-04-28T15:55:31.999Z,11.80
2019-04-28T15:58:37.705Z,9.23
2019-04-28T16:01:47.456Z,9.87
2019-04-28T16:04:51.908Z,9.80
2019-04-28T16:07:57.339Z,8.50
2019-04-28T16:11:02.479Z,8.50
2019-04-28T16:14:06.912Z,10.10
2019-04-28T16:17:11.295Z,10.67
2019-04-28T16:20:15.992Z,8.23
2019-04-28T16:23:21.475Z,10.53
2019-04-28T16:26:26.052Z,10.60
2019-04-28T16:29:30.571Z,11.57
2019-04-28T16:32:36.131Z,13.87
2019-04-28T16:35:40.554Z,12.20
2019-04-28T16:38:44.933Z,11.43
2019-04-28T16:41:53.347Z,13.83
2019-04-28T16:44:58.324Z,10.40
2019-04-28T16:48:02.723Z,10.67
2019-04-28T16:51:07.082Z,13.83
2019-04-28T16:54:11.508Z,10.17
2019-04-28T16:57:28.321Z,13.87
2019-04-28T17:00:57.634Z,9.50
2019-04-28T17:04:01.983Z,24.40
2019-04-28T17:07:06.518Z,16.70
2019-04-28T17:10:10.857Z,16.50
2019-04-28T17:13:18.175Z,14.37
2019-04-28T17:16:22.587Z,14.90
2019-04-28T17:19:26.884Z,12.50
2019-04-28T17:22:31.150Z,11.43
2019-04-28T17:25:35.867Z,14.27
2019-04-28T17:28:40.154Z,10.67
2019-04-28T17:31:44.557Z,10.40
2019-04-28T17:34:48.904Z,12.67
2019-04-28T17:38:05.821Z,13.00
2019-04-28T17:40:59.192Z,14.13
2019-04-28T17:44:03.807Z,14.67
2019-04-28T17:47:08.274Z,12.60
2019-04-28T17:50:14.765Z,13.57
2019-04-28T17:53:19.079Z,12.43
2019-04-28T17:56:23.484Z,18.40
2019-04-28T17:59:27.848Z,31.73
2019-04-28T18:02:50.349Z,23.47
2019-04-28T18:05:59.999Z,21.23
2019-04-28T18:09:06.225Z,20.33
2019-04-28T18:12:10.568Z,20.53
2019-04-28T18:15:45.859Z,21.60
2019-04-28T18:18:55.483Z,25.03
2019-04-28T18:21:59.786Z,21.13
2019-04-28T18:25:04.252Z,28.07
2019-04-28T18:28:08.562Z,56.33
2019-04-28T18:31:43.974Z,40.87
2019-04-28T18:35:03.612Z,63.93
2019-04-28T18:38:34.759Z,49.13
2019-04-28T18:42:00.288Z,71.60
2019-04-28T18:45:04.876Z,41.30
2019-04-28T18:48:11.070Z,30.27
2019-04-28T18:51:15.360Z,31.33
2019-04-28T18:54:19.744Z,35.33
2019-04-28T18:57:24.091Z,38.93
2019-04-28T19:00:31.620Z,33.43
2019-04-28T19:03:36.373Z,21.17
2019-04-28T19:06:40.792Z,18.07
2019-04-28T19:09:57.339Z,17.07
2019-04-28T19:13:06.335Z,31.37
2019-04-28T19:16:35.842Z,32.17
2019-04-28T19:19:40.673Z,54.10
2019-04-28T19:22:46.155Z,52.03
2019-04-28T19:25:50.561Z,41.90
2019-04-28T19:28:55.931Z,24.90
2019-04-28T19:32:00.277Z,19.03
2019-04-28T19:35:04.657Z,16.77
2019-04-28T19:38:08.930Z,15.27
2019-04-28T19:41:13.492Z,84.07
2019-04-28T19:44:17.831Z,32.47
2019-04-28T19:47:22.193Z,105.67
2019-04-28T19:50:26.663Z,58.13
2019-04-28T19:53:31.911Z,31.80
2019-04-28T19:56:54.443Z,25.30
2019-04-28T20:00:15.253Z,20.37
2019-04-28T20:03:19.655Z,24.90
2019-04-28T20:06:23.991Z,18.60
2019-04-28T20:09:28.876Z,15.63
2019-04-28T20:12:35.076Z,19.97
2019-04-28T20:15:39.375Z,17.97
2019-04-28T20:18:43.726Z,17.23
2019-04-28T20:21:48.097Z,20.20
2019-04-28T20:24:53.528Z,16.13
2019-04-28T20:27:57.823Z,17.90
2019-04-28T20:31:02.176Z,19.73
2019-04-28T20:34:06.575Z,18.93
2019-04-28T20:40:54.827Z,15.47
2019-04-28T20:44:00.162Z,14.80
2019-04-28T20:47:04.603Z,18.17
2019-04-28T20:50:10.420Z,16.47
2019-04-28T20:53:19.151Z,15.43
2019-04-28T20:56:22.189Z,13.37
2019-04-28T20:59:26.508Z,15.47
2019-04-28T21:02:30.699Z,14.67
2019-04-28T21:05:36.214Z,24.33
2019-04-28T21:08:40.418Z,24.97
2019-04-28T21:11:44.843Z,23.93
2019-04-28T21:14:49.179Z,22.00
2019-04-28T21:17:53.458Z,20.80
2019-04-28T21:20:57.815Z,21.03
2019-04-28T21:24:02.476Z,18.17
2019-04-28T21:27:06.756Z,19.37
2019-04-28T21:30:11.443Z,17.30
2019-04-28T21:33:15.796Z,18.63
2019-04-28T21:36:20.206Z,16.07
2019-04-28T21:39:24.778Z,15.97
2019-04-28T21:42:35.667Z,16.27
2019-04-28T21:45:53.851Z,14.93
2019-04-28T21:49:01.348Z,13.37
2019-04-28T21:52:05.607Z,15.03
2019-04-28T21:55:10.052Z,12.67
2019-04-28T21:58:14.342Z,14.23
2019-04-28T22:01:22.072Z,15.07
2019-04-28T22:04:26.535Z,11.43
2019-04-28T22:07:30.847Z,12.80
2019-04-28T22:10:35.318Z,11.70
2019-04-28T22:13:39.622Z,13.40
2019-04-28T22:16:43.883Z,10.67
2019-04-28T22:19:49.371Z,14.53
2019-04-28T22:22:57.329Z,13.13
2019-04-28T22:26:01.620Z,10.83
2019-04-28T22:29:05.944Z,14.20
2019-04-28T22:32:10.295Z,13.00
2019-04-28T22:35:14.745Z,9.63
2019-04-28T22:38:18.968Z,10.80
2019-04-28T22:41:23.374Z,10.90
2019-04-28T22:44:27.750Z,8.67
2019-04-28T22:47:32.055Z,10.43
2019-04-28T22:50:39.893Z,8.57
2019-04-28T22:53:44.231Z,9.67
2019-04-28T22:56:55.266Z,11.33
2019-04-28T22:59:59.909Z,9.77
2019-04-28T23:03:04.228Z,8.27
2019-04-28T23:06:10.505Z,9.30
2019-04-28T23:09:17.061Z,8.50
2019-04-28T23:12:21.824Z,8.13
2019-04-28T23:15:26.572Z,6.80
2019-04-28T23:18:30.993Z,7.53
2019-04-28T23:21:48.591Z,8.67
2019-04-28T23:24:52.905Z,7.37
2019-04-28T23:27:57.178Z,8.00
2019-04-28T23:31:01.518Z,8.67
2019-04-28T23:34:05.910Z,6.40
2019-04-28T23:37:10.163Z,6.03
2019-04-28T23:40:15.155Z,6.80
2019-04-28T23:43:20.787Z,6.63
2019-04-28T23:46:44.111Z,6.00
2019-04-28T23:49:48.432Z,8.93
2019-04-28T23:53:00.468Z,6.50
2019-04-28T23:56:04.802Z,8.03
2019-04-28T23:59:09.371Z,5.57
